sensor_id;sensor_type;location;lat;lon;timestamp;pressure;altitude;pressure_sealevel;temperature;humidity
39435;BME280;30098;51.880;-0.518;2022-09-17T00:00:47;101291.53;;;20.81;35.05
39435;BME280;30098;51.880;-0.518;2022-09-17T00:03:14;101286.75;;;20.73;35.09
39435;BME280;30098;51.880;-0.518;2022-09-17T00:05:39;101302.50;;;20.81;35.22
39435;BME280;30098;51.880;-0.518;2022-09-17T00:08:07;101228.94;;;20.41;35.16
39435;BME280;30098;51.880;-0.518;2022-09-17T00:10:38;101283.59;;;20.79;35.15
39435;BME280;30098;51.880;-0.518;2022-09-17T00:13:05;101286.66;;;20.78;34.96
39435;BME280;30098;51.880;-0.518;2022-09-17T00:15:31;101295.66;;;20.78;35.14
39435;BME280;30098;51.880;-0.518;2022-09-17T00:17:56;101292.13;;;20.78;35.16
39435;BME280;30098;51.880;-0.518;2022-09-17T00:20:24;101285.84;;;20.77;35.11
39435;BME280;30098;51.880;-0.518;2022-09-17T00:22:50;101233.63;;;20.41;35.27
39435;BME280;30098;51.880;-0.518;2022-09-17T00:25:16;101293.22;;;20.77;35.11
39435;BME280;30098;51.880;-0.518;2022-09-17T00:27:42;101283.38;;;20.76;35.20
39435;BME280;30098;51.880;-0.518;2022-09-17T00:30:08;101283.38;;;20.76;35.15
39435;BME280;30098;51.880;-0.518;2022-09-17T00:32:33;101287.22;;;20.75;34.89
39435;BME280;30098;51.880;-0.518;2022-09-17T00:34:59;101289.97;;;20.75;35.17
39435;BME280;30098;51.880;-0.518;2022-09-17T00:37:24;101286.13;;;20.76;35.13
39435;BME280;30098;51.880;-0.518;2022-09-17T00:39:50;101184.28;;;20.13;35.07
39435;BME280;30098;51.880;-0.518;2022-09-17T00:42:16;101278.22;;;20.74;35.12
39435;BME280;30098;51.880;-0.518;2022-09-17T00:44:52;101275.56;;;20.69;35.02
39435;BME280;30098;51.880;-0.518;2022-09-17T00:47:36;101244.59;;;20.55;34.99
39435;BME280;30098;51.880;-0.518;2022-09-17T00:50:14;101280.16;;;20.74;35.00
39435;BME280;30098;51.880;-0.518;2022-09-17T00:52:47;101282.06;;;20.73;35.06
39435;BME280;30098;51.880;-0.518;2022-09-17T00:55:22;101270.56;;;20.71;35.07
39435;BME280;30098;51.880;-0.518;2022-09-17T00:57:51;101276.03;;;20.71;35.21
39435;BME280;30098;51.880;-0.518;2022-09-17T01:00:18;101273.31;;;20.71;35.00
39435;BME280;30098;51.880;-0.518;2022-09-17T01:02:44;101281.53;;;20.71;34.97
39435;BME280;30098;51.880;-0.518;2022-09-17T01:05:10;101282.66;;;20.70;35.20
39435;BME280;30098;51.880;-0.518;2022-09-17T01:13:16;101276.34;;;20.70;35.12
39435;BME280;30098;51.880;-0.518;2022-09-17T01:24:25;101283.25;;;20.67;35.01
39435;BME280;30098;51.880;-0.518;2022-09-17T01:32:59;101283.56;;;20.66;34.93
39435;BME280;30098;51.880;-0.518;2022-09-17T01:38:39;101278.38;;;20.64;34.94
39435;BME280;30098;51.880;-0.518;2022-09-17T01:44:09;101229.94;;;20.31;35.07
39435;BME280;30098;51.880;-0.518;2022-09-17T01:46:39;101266.91;;;20.62;34.97
39435;BME280;30098;51.880;-0.518;2022-09-17T01:49:08;101269.72;;;20.57;35.10
39435;BME280;30098;51.880;-0.518;2022-09-17T01:51:39;101278.16;;;20.60;35.30
39435;BME280;30098;51.880;-0.518;2022-09-17T01:56:47;101281.50;;;20.57;35.01
39435;BME280;30098;51.880;-0.518;2022-09-17T01:59:19;101186.16;;;19.98;35.30
39435;BME280;30098;51.880;-0.518;2022-09-17T02:01:50;101196.50;;;20.02;35.06
39435;BME280;30098;51.880;-0.518;2022-09-17T02:04:34;101285.88;;;20.58;35.35
39435;BME280;30098;51.880;-0.518;2022-09-17T02:07:09;101288.63;;;20.58;35.18
39435;BME280;30098;51.880;-0.518;2022-09-17T02:09:42;101288.63;;;20.58;35.34
39435;BME280;30098;51.880;-0.518;2022-09-17T02:12:11;101294.09;;;20.58;35.31
39435;BME280;30098;51.880;-0.518;2022-09-17T02:14:43;101285.66;;;20.55;35.22
39435;BME280;30098;51.880;-0.518;2022-09-17T02:17:38;101292.47;;;20.57;35.07
39435;BME280;30098;51.880;-0.518;2022-09-17T02:20:06;101291.63;;;20.57;35.25
39435;BME280;30098;51.880;-0.518;2022-09-17T02:22:41;101281.00;;;20.55;35.09
39435;BME280;30098;51.880;-0.518;2022-09-17T02:25:26;101290.81;;;20.56;35.24
39435;BME280;30098;51.880;-0.518;2022-09-17T02:30:24;101299.34;;;20.55;35.20
39435;BME280;30098;51.880;-0.518;2022-09-17T02:32:50;101294.66;;;20.55;35.30
39435;BME280;30098;51.880;-0.518;2022-09-17T02:35:15;101300.16;;;20.55;35.34
39435;BME280;30098;51.880;-0.518;2022-09-17T02:37:42;101287.06;;;20.52;35.32
39435;BME280;30098;51.880;-0.518;2022-09-17T02:40:11;101209.38;;;20.01;35.08
39435;BME280;30098;51.880;-0.518;2022-09-17T02:48:27;101291.13;;;20.55;35.47
39435;BME280;30098;51.880;-0.518;2022-09-17T02:51:12;101288.69;;;20.53;35.30
39435;BME280;30098;51.880;-0.518;2022-09-17T02:53:50;101294.16;;;20.53;35.28
39435;BME280;30098;51.880;-0.518;2022-09-17T02:59:15;101304.31;;;20.53;35.32
39435;BME280;30098;51.880;-0.518;2022-09-17T03:01:57;101295.28;;;20.52;35.17
39435;BME280;30098;51.880;-0.518;2022-09-17T03:04:27;101289.09;;;20.46;35.35
39435;BME280;30098;51.880;-0.518;2022-09-17T03:06:54;101276.66;;;20.35;35.50
39435;BME280;30098;51.880;-0.518;2022-09-17T03:09:20;101292.34;;;20.49;35.33
39435;BME280;30098;51.880;-0.518;2022-09-17T03:11:45;101292.03;;;20.50;35.31
39435;BME280;30098;51.880;-0.518;2022-09-17T03:14:11;101288.47;;;20.50;35.26
39435;BME280;30098;51.880;-0.518;2022-09-17T03:16:36;101282.78;;;20.46;35.54
39435;BME280;30098;51.880;-0.518;2022-09-17T03:19:02;101284.94;;;20.49;35.29
39435;BME280;30098;51.880;-0.518;2022-09-17T03:21:28;101283.31;;;20.48;35.62
39435;BME280;30098;51.880;-0.518;2022-09-17T03:23:54;101289.59;;;20.49;35.31
39435;BME280;30098;51.880;-0.518;2022-09-17T03:26:19;101280.56;;;20.48;35.35
39435;BME280;30098;51.880;-0.518;2022-09-17T03:28:45;101285.22;;;20.47;35.37
39435;BME280;30098;51.880;-0.518;2022-09-17T03:31:10;101286.88;;;20.49;35.35
39435;BME280;30098;51.880;-0.518;2022-09-17T03:33:35;101291.50;;;20.48;35.37
39435;BME280;30098;51.880;-0.518;2022-09-17T03:36:01;101289.09;;;20.46;35.33
39435;BME280;30098;51.880;-0.518;2022-09-17T03:38:26;101261.97;;;20.31;35.36
39435;BME280;30098;51.880;-0.518;2022-09-17T03:41:03;101288.25;;;20.46;35.40
39435;BME280;30098;51.880;-0.518;2022-09-17T03:43:30;101294.56;;;20.46;35.39
39435;BME280;30098;51.880;-0.518;2022-09-17T03:45:56;101291.81;;;20.46;35.47
39435;BME280;30098;51.880;-0.518;2022-09-17T03:48:22;101294.56;;;20.46;35.47
39435;BME280;30098;51.880;-0.518;2022-09-17T03:50:48;101201.63;;;19.89;35.34
39435;BME280;30098;51.880;-0.518;2022-09-17T03:53:14;101295.66;;;20.45;35.45
39435;BME280;30098;51.880;-0.518;2022-09-17T03:55:40;101297.56;;;20.45;35.34
39435;BME280;30098;51.880;-0.518;2022-09-17T03:58:05;101296.78;;;20.44;35.51
39435;BME280;30098;51.880;-0.518;2022-09-17T04:00:31;101299.28;;;20.41;35.42
39435;BME280;30098;51.880;-0.518;2022-09-17T04:02:57;101303.03;;;20.45;35.28
39435;BME280;30098;51.880;-0.518;2022-09-17T04:05:23;101305.78;;;20.45;35.28
39435;BME280;30098;51.880;-0.518;2022-09-17T04:07:48;101312.38;;;20.44;35.45
39435;BME280;30098;51.880;-0.518;2022-09-17T04:10:14;101319.47;;;20.45;35.40
39435;BME280;30098;51.880;-0.518;2022-09-17T04:12:40;101310.25;;;20.41;35.50
39435;BME280;30098;51.880;-0.518;2022-09-17T04:15:06;101324.44;;;20.43;35.42
39435;BME280;30098;51.880;-0.518;2022-09-17T04:17:33;101299.16;;;20.32;35.45
39435;BME280;30098;51.880;-0.518;2022-09-17T04:19:58;101309.94;;;20.42;35.55
39435;BME280;30098;51.880;-0.518;2022-09-17T04:22:25;101311.88;;;20.42;35.46
39435;BME280;30098;51.880;-0.518;2022-09-17T04:24:50;101311.88;;;20.42;35.57
39435;BME280;30098;51.880;-0.518;2022-09-17T04:27:16;101295.69;;;20.26;35.46
39435;BME280;30098;51.880;-0.518;2022-09-17T04:29:41;101314.59;;;20.42;35.38
39435;BME280;30098;51.880;-0.518;2022-09-17T04:32:07;101298.34;;;20.31;35.41
39435;BME280;30098;51.880;-0.518;2022-09-17T04:34:33;101321.19;;;20.41;35.44
39435;BME280;30098;51.880;-0.518;2022-09-17T04:36:59;101310.53;;;20.39;35.52
39435;BME280;30098;51.880;-0.518;2022-09-17T04:39:24;101298.44;;;20.26;35.33
39435;BME280;30098;51.880;-0.518;2022-09-17T04:41:50;101233.66;;;19.83;35.45
39435;BME280;30098;51.880;-0.518;2022-09-17T04:44:15;101323.41;;;20.39;35.49
39435;BME280;30098;51.880;-0.518;2022-09-17T04:46:40;101326.13;;;20.39;35.58
39435;BME280;30098;51.880;-0.518;2022-09-17T04:49:06;101322.59;;;20.38;35.44
39435;BME280;30098;51.880;-0.518;2022-09-17T04:51:33;101306.19;;;20.38;35.39
39435;BME280;30098;51.880;-0.518;2022-09-17T04:53:59;101313.56;;;20.38;35.38
39435;BME280;30098;51.880;-0.518;2022-09-17T04:56:24;101318.22;;;20.37;35.69
39435;BME280;30098;51.880;-0.518;2022-09-17T04:58:50;101307.28;;;20.37;35.42
39435;BME280;30098;51.880;-0.518;2022-09-17T05:01:15;101314.69;;;20.37;35.51
39435;BME280;30098;51.880;-0.518;2022-09-17T05:03:43;101316.59;;;20.36;35.54
39435;BME280;30098;51.880;-0.518;2022-09-17T05:06:09;101314.47;;;20.33;35.49
39435;BME280;30098;51.880;-0.518;2022-09-17T05:08:34;101241.31;;;19.87;35.58
39435;BME280;30098;51.880;-0.518;2022-09-17T05:11:00;101326.75;;;20.36;35.42
39435;BME280;30098;51.880;-0.518;2022-09-17T05:13:26;101300.63;;;20.24;35.46
39435;BME280;30098;51.880;-0.518;2022-09-17T05:15:53;101316.91;;;20.35;35.44
39435;BME280;30098;51.880;-0.518;2022-09-17T05:18:21;101300.63;;;20.24;35.33
39435;BME280;30098;51.880;-0.518;2022-09-17T05:20:46;101326.22;;;20.34;35.46
39435;BME280;30098;51.880;-0.518;2022-09-17T05:23:12;101290.88;;;20.18;35.27
39435;BME280;30098;51.880;-0.518;2022-09-17T05:25:37;101318.00;;;20.34;35.56
39435;BME280;30098;51.880;-0.518;2022-09-17T05:28:03;101314.19;;;20.35;35.40
39435;BME280;30098;51.880;-0.518;2022-09-17T05:30:28;101323.50;;;20.34;35.57
39435;BME280;30098;51.880;-0.518;2022-09-17T05:33:02;101317.22;;;20.33;35.49
39435;BME280;30098;51.880;-0.518;2022-09-17T05:35:29;101321.06;;;20.32;35.61
39435;BME280;30098;51.880;-0.518;2022-09-17T05:38:03;101321.88;;;20.33;35.45
39435;BME280;30098;51.880;-0.518;2022-09-17T05:40:29;101240.03;;;19.79;35.57
39435;BME280;30098;51.880;-0.518;2022-09-17T05:43:02;101318.31;;;20.32;35.58
39435;BME280;30098;51.880;-0.518;2022-09-17T05:45:28;101295.84;;;20.16;35.45
39435;BME280;30098;51.880;-0.518;2022-09-17T05:47:59;101319.75;;;20.29;35.49
39435;BME280;30098;51.880;-0.518;2022-09-17T05:50:27;101337.75;;;20.30;35.65
39435;BME280;30098;51.880;-0.518;2022-09-17T05:52:53;101326.53;;;20.32;35.49
39435;BME280;30098;51.880;-0.518;2022-09-17T05:55:20;101309.75;;;20.20;35.52
39435;BME280;30098;51.880;-0.518;2022-09-17T05:57:47;101332.28;;;20.30;35.43
39435;BME280;30098;51.880;-0.518;2022-09-17T06:00:13;101328.75;;;20.30;35.62
39435;BME280;30098;51.880;-0.518;2022-09-17T06:02:39;101329.06;;;20.28;35.48
39435;BME280;30098;51.880;-0.518;2022-09-17T06:05:05;101336.97;;;20.30;35.50
39435;BME280;30098;51.880;-0.518;2022-09-17T06:07:31;101328.88;;;20.20;35.60
39435;BME280;30098;51.880;-0.518;2022-09-17T06:09:58;101337.25;;;20.28;35.60
39435;BME280;30098;51.880;-0.518;2022-09-17T06:12:24;101336.16;;;20.29;35.52
39435;BME280;30098;51.880;-0.518;2022-09-17T06:14:49;101331.78;;;20.28;35.57
39435;BME280;30098;51.880;-0.518;2022-09-17T06:17:15;101339.16;;;20.28;35.64
39435;BME280;30098;51.880;-0.518;2022-09-17T06:19:40;101337.25;;;20.28;35.48
39435;BME280;30098;51.880;-0.518;2022-09-17T06:22:06;101337.25;;;20.28;35.53
39435;BME280;30098;51.880;-0.518;2022-09-17T06:24:31;101344.63;;;20.28;35.32
39435;BME280;30098;51.880;-0.518;2022-09-17T06:26:57;101340.28;;;20.27;35.42
39435;BME280;30098;51.880;-0.518;2022-09-17T06:29:22;101344.63;;;20.28;35.52
39435;BME280;30098;51.880;-0.518;2022-09-17T06:31:48;101345.75;;;20.27;35.64
39435;BME280;30098;51.880;-0.518;2022-09-17T06:34:14;101348.47;;;20.27;35.41
39435;BME280;30098;51.880;-0.518;2022-09-17T06:36:40;101341.09;;;20.27;35.64
39435;BME280;30098;51.880;-0.518;2022-09-17T06:39:05;101344.16;;;20.26;35.42
39435;BME280;30098;51.880;-0.518;2022-09-17T06:41:31;101338.66;;;20.26;35.61
39435;BME280;30098;51.880;-0.518;2022-09-17T06:43:57;101313.97;;;20.12;35.55
39435;BME280;30098;51.880;-0.518;2022-09-17T06:46:23;101304.53;;;20.04;35.71
39435;BME280;30098;51.880;-0.518;2022-09-17T06:48:48;101328.44;;;20.12;35.66
39435;BME280;30098;51.880;-0.518;2022-09-17T06:51:14;101337.03;;;20.25;35.61
39435;BME280;30098;51.880;-0.518;2022-09-17T06:53:40;101336.22;;;20.24;35.92
39435;BME280;30098;51.880;-0.518;2022-09-17T06:56:07;101337.31;;;20.23;35.68
39435;BME280;30098;51.880;-0.518;2022-09-17T06:58:36;101345.25;;;20.25;35.55
39435;BME280;30098;51.880;-0.518;2022-09-17T07:01:04;101350.19;;;20.23;35.48
39435;BME280;30098;51.880;-0.518;2022-09-17T07:03:30;101348.25;;;20.23;35.53
39435;BME280;30098;51.880;-0.518;2022-09-17T07:05:56;101349.41;;;20.22;35.66
39435;BME280;30098;51.880;-0.518;2022-09-17T07:08:22;101324.69;;;20.08;35.60
39435;BME280;30098;51.880;-0.518;2022-09-17T07:10:48;101341.19;;;20.22;35.48
39435;BME280;30098;51.880;-0.518;2022-09-17T07:13:13;101343.94;;;20.22;35.54
39435;BME280;30098;51.880;-0.518;2022-09-17T07:15:39;101345.03;;;20.21;35.44
39435;BME280;30098;51.880;-0.518;2022-09-17T07:18:09;101344.19;;;20.21;35.57
39435;BME280;30098;51.880;-0.518;2022-09-17T07:20:35;101348.56;;;20.22;35.59
39435;BME280;30098;51.880;-0.518;2022-09-17T07:23:00;101352.41;;;20.21;35.54
39435;BME280;30098;51.880;-0.518;2022-09-17T07:25:26;101298.97;;;19.90;35.57
39435;BME280;30098;51.880;-0.518;2022-09-17T07:27:52;101330.69;;;20.10;35.56
39435;BME280;30098;51.880;-0.518;2022-09-17T07:30:18;101335.78;;;20.17;35.71
39435;BME280;30098;51.880;-0.518;2022-09-17T07:32:44;101328.44;;;20.12;35.67
39435;BME280;30098;51.880;-0.518;2022-09-17T07:35:10;101330.38;;;20.12;35.63
39435;BME280;30098;51.880;-0.518;2022-09-17T07:37:35;101261.22;;;19.68;35.48
39435;BME280;30098;51.880;-0.518;2022-09-17T07:40:02;101338.22;;;20.19;35.57
39435;BME280;30098;51.880;-0.518;2022-09-17T07:42:30;101326.47;;;20.18;35.58
39435;BME280;30098;51.880;-0.518;2022-09-17T07:44:56;101335.78;;;20.17;35.60
39435;BME280;30098;51.880;-0.518;2022-09-17T07:47:22;101333.03;;;20.17;35.63
39435;BME280;30098;51.880;-0.518;2022-09-17T07:49:47;101330.31;;;20.17;35.52
39435;BME280;30098;51.880;-0.518;2022-09-17T07:52:13;101333.88;;;20.18;35.58
39435;BME280;30098;51.880;-0.518;2022-09-17T07:54:38;101324.81;;;20.17;35.49
39435;BME280;30098;51.880;-0.518;2022-09-17T07:57:04;101334.97;;;20.17;35.47
39435;BME280;30098;51.880;-0.518;2022-09-17T07:59:29;101333.34;;;20.15;35.50
39435;BME280;30098;51.880;-0.518;2022-09-17T08:01:55;101331.41;;;20.16;35.67
39435;BME280;30098;51.880;-0.518;2022-09-17T08:04:20;101327.06;;;20.15;35.54
39435;BME280;30098;51.880;-0.518;2022-09-17T08:06:46;101335.28;;;20.15;35.65
39435;BME280;30098;51.880;-0.518;2022-09-17T08:09:13;101330.06;;;20.13;35.47
39435;BME280;30098;51.880;-0.518;2022-09-17T08:11:40;101261.00;;;19.64;35.52
39435;BME280;30098;51.880;-0.518;2022-09-17T08:14:09;101332.81;;;20.13;35.56
39435;BME280;30098;51.880;-0.518;2022-09-17T08:16:35;101334.75;;;20.13;35.47
39435;BME280;30098;51.880;-0.518;2022-09-17T08:19:01;101337.47;;;20.13;35.46
39435;BME280;30098;51.880;-0.518;2022-09-17T08:21:27;101338.59;;;20.12;35.58
39435;BME280;30098;51.880;-0.518;2022-09-17T08:23:52;101316.94;;;19.96;35.58
39435;BME280;30098;51.880;-0.518;2022-09-17T08:26:20;101334.22;;;20.11;35.43
39435;BME280;30098;51.880;-0.518;2022-09-17T08:28:49;101348.72;;;20.11;35.52
39435;BME280;30098;51.880;-0.518;2022-09-17T08:31:16;101345.16;;;20.11;35.59
39435;BME280;30098;51.880;-0.518;2022-09-17T08:33:42;101344.38;;;20.10;35.49
39435;BME280;30098;51.880;-0.518;2022-09-17T08:36:10;101354.47;;;20.10;35.38
39435;BME280;30098;51.880;-0.518;2022-09-17T08:38:37;101350.94;;;20.09;35.39
39435;BME280;30098;51.880;-0.518;2022-09-17T08:43:41;101359.16;;;20.09;35.38
39435;BME280;30098;51.880;-0.518;2022-09-17T08:46:10;101346.56;;;20.08;35.44
39435;BME280;30098;51.880;-0.518;2022-09-17T08:48:41;101354.56;;;20.05;35.42
39435;BME280;30098;51.880;-0.518;2022-09-17T08:51:18;101356.72;;;20.08;35.42
39435;BME280;30098;51.880;-0.518;2022-09-17T08:56:36;101351.53;;;20.06;35.40
39435;BME280;30098;51.880;-0.518;2022-09-17T08:59:23;101355.09;;;20.07;35.42
39435;BME280;30098;51.880;-0.518;2022-09-17T09:02:02;101353.44;;;20.06;35.56
39435;BME280;30098;51.880;-0.518;2022-09-17T09:05:07;101346.34;;;20.05;35.15
39435;BME280;30098;51.880;-0.518;2022-09-17T09:07:35;101349.09;;;20.05;35.44
39435;BME280;30098;51.880;-0.518;2022-09-17T09:10:09;101352.94;;;20.04;35.57
39435;BME280;30098;51.880;-0.518;2022-09-17T09:12:37;101358.41;;;20.04;35.39
39435;BME280;30098;51.880;-0.518;2022-09-17T09:18:24;101363.34;;;20.02;35.47
39435;BME280;30098;51.880;-0.518;2022-09-17T09:20:52;101369.94;;;20.01;35.38
39435;BME280;30098;51.880;-0.518;2022-09-17T09:23:27;101277.66;;;19.44;35.34
39435;BME280;30098;51.880;-0.518;2022-09-17T09:26:22;101369.94;;;20.01;35.39
39435;BME280;30098;51.880;-0.518;2022-09-17T09:32:09;101371.06;;;19.99;35.38
39435;BME280;30098;51.880;-0.518;2022-09-17T09:34:37;101320.03;;;19.65;35.28
39435;BME280;30098;51.880;-0.518;2022-09-17T09:37:26;101366.69;;;19.98;35.26
39435;BME280;30098;51.880;-0.518;2022-09-17T09:39:54;101371.31;;;19.98;35.35
39435;BME280;30098;51.880;-0.518;2022-09-17T09:42:31;101358.25;;;19.95;35.28
39435;BME280;30098;51.880;-0.518;2022-09-17T09:45:02;101362.09;;;19.94;35.31
39435;BME280;30098;51.880;-0.518;2022-09-17T09:55:31;101357.16;;;19.96;35.32
39435;BME280;30098;51.880;-0.518;2022-09-17T10:00:36;101355.50;;;19.95;35.42
39435;BME280;30098;51.880;-0.518;2022-09-17T10:03:17;101336.72;;;19.88;35.12
39435;BME280;30098;51.880;-0.518;2022-09-17T10:05:58;101350.84;;;19.95;35.19
39435;BME280;30098;51.880;-0.518;2022-09-17T10:08:25;101341.09;;;19.89;35.49
39435;BME280;30098;51.880;-0.518;2022-09-17T10:11:03;101342.94;;;19.94;34.93
39435;BME280;30098;51.880;-0.518;2022-09-17T10:13:31;101346.78;;;19.93;35.03
39435;BME280;30098;51.880;-0.518;2022-09-17T10:16:16;101336.94;;;19.92;34.46
39435;BME280;30098;51.880;-0.518;2022-09-17T10:18:42;101342.19;;;19.88;34.44
39435;BME280;30098;51.880;-0.518;2022-09-17T10:21:32;101355.88;;;19.88;33.89
39435;BME280;30098;51.880;-0.518;2022-09-17T10:23:59;101350.16;;;19.84;33.90
39435;BME280;30098;51.880;-0.518;2022-09-17T10:26:31;101346.63;;;19.84;33.50
39435;BME280;30098;51.880;-0.518;2022-09-17T10:28:59;101347.72;;;19.83;33.48
39435;BME280;30098;51.880;-0.518;2022-09-17T10:31:25;101346.38;;;19.80;33.66
39435;BME280;30098;51.880;-0.518;2022-09-17T10:33:52;101339.28;;;19.79;33.59
39435;BME280;30098;51.880;-0.518;2022-09-17T10:36:39;101332.97;;;19.79;33.38
39435;BME280;30098;51.880;-0.518;2022-09-17T10:39:33;101344.22;;;19.77;33.34
39435;BME280;30098;51.880;-0.518;2022-09-17T10:44:36;101331.94;;;19.75;33.66
39435;BME280;30098;51.880;-0.518;2022-09-17T10:47:10;101330.31;;;19.74;33.68
39435;BME280;30098;51.880;-0.518;2022-09-17T10:49:47;101332.25;;;19.73;33.58
39435;BME280;30098;51.880;-0.518;2022-09-17T10:52:27;101310.28;;;19.59;33.42
39435;BME280;30098;51.880;-0.518;2022-09-17T10:55:11;101330.63;;;19.72;33.46
39435;BME280;30098;51.880;-0.518;2022-09-17T10:57:47;101320.00;;;19.71;33.65
39435;BME280;30098;51.880;-0.518;2022-09-17T11:00:19;101325.72;;;19.69;33.67
39435;BME280;30098;51.880;-0.518;2022-09-17T11:05:45;101306.59;;;19.69;33.70
39435;BME280;30098;51.880;-0.518;2022-09-17T11:08:25;101274.28;;;19.52;33.55
39435;BME280;30098;51.880;-0.518;2022-09-17T11:17:11;101325.50;;;19.65;33.58
39435;BME280;30098;51.880;-0.518;2022-09-17T11:24:54;101307.25;;;19.61;33.66
39435;BME280;30098;51.880;-0.518;2022-09-17T11:27:41;101294.72;;;19.60;33.43
39435;BME280;30098;51.880;-0.518;2022-09-17T11:30:22;101296.63;;;19.59;33.49
39435;BME280;30098;51.880;-0.518;2022-09-17T11:35:36;101287.66;;;19.53;33.62
39435;BME280;30098;51.880;-0.518;2022-09-17T11:38:24;101288.19;;;19.56;33.57
39435;BME280;30098;51.880;-0.518;2022-09-17T11:41:21;101254.84;;;19.34;33.50
39435;BME280;30098;51.880;-0.518;2022-09-17T11:44:13;101280.28;;;19.54;33.49
39435;BME280;30098;51.880;-0.518;2022-09-17T11:46:43;101240.75;;;19.27;33.54
39435;BME280;30098;51.880;-0.518;2022-09-17T11:49:57;101286.06;;;19.52;33.30
39435;BME280;30098;51.880;-0.518;2022-09-17T11:52:35;101280.59;;;19.52;33.38
39435;BME280;30098;51.880;-0.518;2022-09-17T11:55:22;101275.41;;;19.51;33.42
39435;BME280;30098;51.880;-0.518;2022-09-17T11:57:58;101276.50;;;19.50;33.47
39435;BME280;30098;51.880;-0.518;2022-09-17T12:00:24;101258.63;;;19.39;33.60
39435;BME280;30098;51.880;-0.518;2022-09-17T12:03:18;101276.50;;;19.50;33.41
39435;BME280;30098;51.880;-0.518;2022-09-17T12:05:51;101277.34;;;19.50;33.56
39435;BME280;30098;51.880;-0.518;2022-09-17T12:08:23;101272.16;;;19.49;33.56
39435;BME280;30098;51.880;-0.518;2022-09-17T12:13:30;101272.75;;;19.46;33.28
39435;BME280;30098;51.880;-0.518;2022-09-17T12:16:26;101273.53;;;19.46;33.43
39435;BME280;30098;51.880;-0.518;2022-09-17T12:19:01;101279.00;;;19.46;33.29
39435;BME280;30098;51.880;-0.518;2022-09-17T12:21:48;101270.00;;;19.46;33.31
39435;BME280;30098;51.880;-0.518;2022-09-17T12:24:25;101274.13;;;19.43;33.41
39435;BME280;30098;51.880;-0.518;2022-09-17T12:37:44;101261.88;;;19.41;33.53
39435;BME280;30098;51.880;-0.518;2022-09-17T12:40:20;101252.06;;;19.40;33.47
39435;BME280;30098;51.880;-0.518;2022-09-17T12:43:14;101262.97;;;19.40;33.29
39435;BME280;30098;51.880;-0.518;2022-09-17T12:54:03;101240.91;;;19.36;33.29
39435;BME280;30098;51.880;-0.518;2022-09-17T12:59:53;101150.91;;;18.77;33.64
39435;BME280;30098;51.880;-0.518;2022-09-17T13:16:32;101246.44;;;19.31;33.25
39435;BME280;30098;51.880;-0.518;2022-09-17T13:19:06;101237.41;;;19.30;33.39
39435;BME280;30098;51.880;-0.518;2022-09-17T13:24:16;101232.53;;;19.27;33.11
39435;BME280;30098;51.880;-0.518;2022-09-17T13:26:42;101240.75;;;19.27;33.25
39435;BME280;30098;51.880;-0.518;2022-09-17T13:29:10;101236.06;;;19.28;33.17
39435;BME280;30098;51.880;-0.518;2022-09-17T13:34:26;101230.91;;;19.26;33.02
39435;BME280;30098;51.880;-0.518;2022-09-17T13:36:54;101229.28;;;19.25;32.93
39435;BME280;30098;51.880;-0.518;2022-09-17T13:39:39;101241.00;;;19.26;32.87
39435;BME280;30098;51.880;-0.518;2022-09-17T13:42:16;101236.94;;;19.23;32.78
39435;BME280;30098;51.880;-0.518;2022-09-17T13:44:50;101236.94;;;19.23;32.71
39435;BME280;30098;51.880;-0.518;2022-09-17T13:49:49;101223.59;;;19.22;32.72
39435;BME280;30098;51.880;-0.518;2022-09-17T13:55:01;101222.75;;;19.21;32.72
39435;BME280;30098;51.880;-0.518;2022-09-17T13:57:28;101221.16;;;19.20;32.74
39435;BME280;30098;51.880;-0.518;2022-09-17T13:59:57;101229.34;;;19.20;32.49
39435;BME280;30098;51.880;-0.518;2022-09-17T14:04:54;101226.63;;;19.20;32.77
39435;BME280;30098;51.880;-0.518;2022-09-17T14:21:03;101128.31;;;18.71;32.65
39435;BME280;30098;51.880;-0.518;2022-09-17T14:23:33;101206.16;;;19.17;32.63
39435;BME280;30098;51.880;-0.518;2022-09-17T14:26:01;101208.06;;;19.17;32.52
39435;BME280;30098;51.880;-0.518;2022-09-17T14:28:33;101210.00;;;19.16;32.69
39435;BME280;30098;51.880;-0.518;2022-09-17T14:31:12;101209.19;;;19.16;32.42
39435;BME280;30098;51.880;-0.518;2022-09-17T14:33:42;101225.25;;;19.17;32.49
39435;BME280;30098;51.880;-0.518;2022-09-17T14:36:11;101207.28;;;19.16;32.44
39435;BME280;30098;51.880;-0.518;2022-09-17T14:38:46;101224.47;;;19.17;32.66
39435;BME280;30098;51.880;-0.518;2022-09-17T14:46:10;101186.06;;;19.08;32.18
39435;BME280;30098;51.880;-0.518;2022-09-17T14:48:40;101202.09;;;19.15;32.03
39435;BME280;30098;51.880;-0.518;2022-09-17T14:53:44;101184.72;;;19.05;31.88
39435;BME280;30098;51.880;-0.518;2022-09-17T14:56:12;101203.78;;;19.11;31.78
39435;BME280;30098;51.880;-0.518;2022-09-17T14:58:52;101194.50;;;19.12;31.78
39435;BME280;30098;51.880;-0.518;2022-09-17T15:01:26;101190.13;;;19.11;32.08
39435;BME280;30098;51.880;-0.518;2022-09-17T15:06:37;101203.50;;;19.12;32.29
39435;BME280;30098;51.880;-0.518;2022-09-17T15:09:03;101191.75;;;19.12;32.27
39435;BME280;30098;51.880;-0.518;2022-09-17T15:11:30;101194.50;;;19.12;32.25
39435;BME280;30098;51.880;-0.518;2022-09-17T15:14:04;101191.75;;;19.12;32.34
39435;BME280;30098;51.880;-0.518;2022-09-17T15:16:31;101203.50;;;19.12;32.59
39435;BME280;30098;51.880;-0.518;2022-09-17T15:19:02;101198.81;;;19.13;32.71
39435;BME280;30098;51.880;-0.518;2022-09-17T15:21:38;101200.47;;;19.14;32.54
39435;BME280;30098;51.880;-0.518;2022-09-17T15:24:28;101194.19;;;19.13;32.46
39435;BME280;30098;51.880;-0.518;2022-09-17T15:27:03;101196.94;;;19.13;32.59
39435;BME280;30098;51.880;-0.518;2022-09-17T15:29:31;101193.91;;;19.15;32.49
39435;BME280;30098;51.880;-0.518;2022-09-17T15:31:58;101193.09;;;19.14;32.37
39435;BME280;30098;51.880;-0.518;2022-09-17T15:34:23;101184.06;;;19.14;32.38